createdAt,value
2022-08-03T00:00:57.787Z,19.95
2022-08-03T00:05:00.876Z,19.83
2022-08-03T00:09:06.114Z,19.84
2022-08-03T00:13:09.326Z,20.04
2022-08-03T00:17:12.488Z,19.80
2022-08-03T00:21:15.728Z,19.84
2022-08-03T00:25:20.380Z,19.71
2022-08-03T00:29:23.484Z,19.65
2022-08-03T00:33:26.540Z,19.65
2022-08-03T00:37:40.962Z,19.61
2022-08-03T00:41:46.249Z,19.55
2022-08-03T00:45:51.016Z,19.51
2022-08-03T00:49:54.147Z,19.44
2022-08-03T00:53:57.186Z,19.57
2022-08-03T00:58:05.168Z,19.55
2022-08-03T01:02:08.205Z,19.42
2022-08-03T01:06:18.168Z,19.32
2022-08-03T01:10:29.669Z,19.28
2022-08-03T01:14:40.233Z,19.24
2022-08-03T01:18:48.755Z,19.19
2022-08-03T01:23:24.342Z,19.35
2022-08-03T01:27:48.047Z,19.24
2022-08-03T01:32:53.391Z,19.22
2022-08-03T01:36:25.549Z,19.14
2022-08-03T01:40:29.594Z,19.11
2022-08-03T01:44:38.337Z,19.39
2022-08-03T01:48:44.653Z,19.27
2022-08-03T01:52:50.144Z,19.22
2022-08-03T01:56:54.278Z,19.38
2022-08-03T02:00:59.598Z,19.45
2022-08-03T02:05:11.058Z,19.47
2022-08-03T02:09:16.036Z,19.32
2022-08-03T02:13:20.675Z,19.28
2022-08-03T02:17:39.779Z,19.24
2022-08-03T02:21:56.316Z,19.00
2022-08-03T02:26:05.985Z,19.04
2022-08-03T02:30:11.142Z,19.07
2022-08-03T02:34:15.955Z,18.97
2022-08-03T02:38:24.780Z,18.79
2022-08-03T02:42:29.639Z,18.67
2022-08-03T02:52:29.121Z,18.59
2022-08-03T02:56:35.632Z,18.45
2022-08-03T03:00:40.392Z,18.44
2022-08-03T03:04:59.733Z,18.57
2022-08-03T03:09:08.143Z,18.59
2022-08-03T03:13:14.888Z,18.60
2022-08-03T03:17:18.609Z,18.52
2022-08-03T03:21:22.946Z,18.50
2022-08-03T03:25:26.232Z,18.51
2022-08-03T03:29:31.123Z,18.47
2022-08-03T03:33:42.668Z,18.45
2022-08-03T03:37:45.734Z,18.45
2022-08-03T03:41:48.806Z,18.38
2022-08-03T03:45:55.784Z,18.34
2022-08-03T03:49:59.791Z,18.33
2022-08-03T03:54:04.548Z,18.30
2022-08-03T03:58:08.699Z,18.35
2022-08-03T04:02:13.936Z,18.35
2022-08-03T04:06:35.238Z,18.18
2022-08-03T04:11:02.027Z,18.07
2022-08-03T04:15:07.378Z,18.33
2022-08-03T04:19:23.156Z,18.35
2022-08-03T04:23:31.413Z,18.44
2022-08-03T04:27:38.083Z,18.43
2022-08-03T04:31:43.169Z,18.49
2022-08-03T04:36:01.800Z,18.52
2022-08-03T04:40:10.057Z,18.51
2022-08-03T04:44:14.927Z,18.58
2022-08-03T04:48:18.709Z,18.70
2022-08-03T04:52:23.281Z,18.78
2022-08-03T04:56:26.381Z,18.83
2022-08-03T05:00:30.329Z,18.90
2022-08-03T05:04:33.368Z,18.98
2022-08-03T05:08:46.327Z,18.98
2022-08-03T05:12:51.740Z,18.98
2022-08-03T05:29:07.868Z,19.91
2022-08-03T05:33:10.956Z,20.00
2022-08-03T05:37:14.230Z,20.10
2022-08-03T05:41:22.327Z,20.24
2022-08-03T05:45:28.513Z,20.39
2022-08-03T05:49:31.908Z,20.60
2022-08-03T05:53:36.074Z,20.75
2022-08-03T05:57:39.337Z,20.91
2022-08-03T06:01:43.814Z,21.11
2022-08-03T06:05:52.797Z,21.23
2022-08-03T06:10:36.105Z,21.37
2022-08-03T06:14:26.899Z,21.62
2022-08-03T06:18:31.335Z,21.73
2022-08-03T06:22:34.409Z,21.85
2022-08-03T06:26:37.542Z,22.01
2022-08-03T06:30:41.541Z,22.22
2022-08-03T06:34:45.903Z,22.38
2022-08-03T06:38:49.024Z,22.55
2022-08-03T06:42:52.124Z,22.84
2022-08-03T06:46:55.180Z,22.92
2022-08-03T06:50:59.683Z,23.19
2022-08-03T06:55:02.762Z,23.42
2022-08-03T06:59:05.965Z,23.65
2022-08-03T07:03:09.017Z,23.85
2022-08-03T07:07:14.014Z,24.01
2022-08-03T07:11:17.087Z,24.17
2022-08-03T07:15:38.410Z,24.37
2022-08-03T07:19:43.772Z,24.45
2022-08-03T07:23:48.120Z,24.60
2022-08-03T07:27:51.849Z,24.78
2022-08-03T07:31:54.989Z,25.12
2022-08-03T07:35:58.126Z,25.10
2022-08-03T07:40:03.592Z,25.45
2022-08-03T07:44:06.652Z,25.50
2022-08-03T07:48:12.431Z,25.63
2022-08-03T07:52:33.549Z,25.86
2022-08-03T07:56:38.155Z,25.97
2022-08-03T08:00:41.240Z,26.10
2022-08-03T08:04:44.220Z,26.18
2022-08-03T08:08:47.287Z,26.24
2022-08-03T08:12:51.865Z,26.34
2022-08-03T08:16:55.061Z,27.26
2022-08-03T08:20:58.259Z,28.30
2022-08-03T08:25:01.590Z,29.34
2022-08-03T08:29:06.762Z,30.20
2022-08-03T08:33:15.728Z,30.12
2022-08-03T08:37:26.696Z,30.40
2022-08-03T08:41:33.824Z,31.22
2022-08-03T08:45:38.921Z,30.73
2022-08-03T08:49:58.231Z,30.65
2022-08-03T08:54:09.410Z,31.22
2022-08-03T08:58:13.196Z,31.63
2022-08-03T09:02:25.852Z,31.07
2022-08-03T09:06:28.904Z,31.47
2022-08-03T09:10:31.914Z,31.61
2022-08-03T09:14:45.407Z,31.76
2022-08-03T09:19:13.786Z,30.92
2022-08-03T09:23:59.616Z,30.66
2022-08-03T09:27:44.763Z,31.08
2022-08-03T09:31:47.967Z,32.85
2022-08-03T09:35:53.996Z,30.74
2022-08-03T09:39:57.697Z,32.29
2022-08-03T09:44:00.890Z,31.87
2022-08-03T09:48:24.143Z,31.99
2022-08-03T09:52:48.316Z,31.83
2022-08-03T09:56:53.713Z,31.05
2022-08-03T10:00:59.036Z,32.84
2022-08-03T10:05:02.088Z,32.32
2022-08-03T10:09:11.864Z,33.06
2022-08-03T10:13:15.805Z,33.36
2022-08-03T10:17:19.215Z,33.37
2022-08-03T10:21:23.327Z,33.16
2022-08-03T10:25:32.886Z,33.66
2022-08-03T10:29:40.103Z,31.81
2022-08-03T10:33:51.253Z,32.03
2022-08-03T10:38:00.016Z,33.04
2022-08-03T10:42:05.447Z,33.14
2022-08-03T10:46:16.645Z,33.38
2022-08-03T10:50:20.444Z,32.87
2022-08-03T10:54:59.808Z,33.49
2022-08-03T10:59:04.499Z,33.83
2022-08-03T11:03:14.629Z,33.96
2022-08-03T11:07:23.376Z,34.19
2022-08-03T11:11:28.660Z,34.63
2022-08-03T11:15:36.089Z,34.69
2022-08-03T11:19:56.822Z,34.77
2022-08-03T11:24:04.049Z,34.92
2022-08-03T11:28:27.925Z,34.05
2022-08-03T11:32:59.567Z,33.87
2022-08-03T11:37:23.594Z,34.29
2022-08-03T11:41:44.915Z,34.38
2022-08-03T11:45:58.668Z,34.66
2022-08-03T11:50:03.065Z,35.17
2022-08-03T11:54:07.888Z,34.63
2022-08-03T11:59:10.956Z,34.53
2022-08-03T12:02:40.204Z,34.57
2022-08-03T12:06:59.481Z,34.80
2022-08-03T12:11:05.797Z,36.21
2022-08-03T12:15:09.754Z,35.28
2022-08-03T12:19:12.735Z,35.83
2022-08-03T12:23:17.509Z,34.94
2022-08-03T12:27:29.785Z,36.57
2022-08-03T12:31:32.811Z,35.19
2022-08-03T12:35:35.831Z,36.34
2022-08-03T12:40:02.178Z,35.53
2022-08-03T12:44:04.555Z,37.07
2022-08-03T12:48:11.414Z,36.52
2022-08-03T12:52:14.528Z,35.57
2022-08-03T12:56:20.008Z,35.43
2022-08-03T13:00:29.665Z,35.04
2022-08-03T13:04:35.599Z,35.38
2022-08-03T13:08:38.624Z,35.39
2022-08-03T13:12:50.233Z,36.59
2022-08-03T13:16:53.290Z,35.97
2022-08-03T13:20:56.304Z,36.81
2022-08-03T13:25:01.160Z,36.03
2022-08-03T13:29:05.469Z,35.83
2022-08-03T13:33:09.748Z,36.40
2022-08-03T13:37:13.167Z,36.09
2022-08-03T13:41:16.381Z,36.59
2022-08-03T13:45:22.015Z,35.96
2022-08-03T13:49:25.012Z,36.70
2022-08-03T13:53:28.128Z,37.07
2022-08-03T13:58:03.677Z,37.05
2022-08-03T14:01:56.188Z,37.73
2022-08-03T14:05:59.264Z,38.45
2022-08-03T14:10:02.664Z,36.09
2022-08-03T14:14:06.056Z,36.30
2022-08-03T14:18:15.498Z,36.95
2022-08-03T14:22:19.063Z,36.86
2022-08-03T14:26:22.163Z,35.58
2022-08-03T14:30:25.220Z,35.57
2022-08-03T14:34:29.568Z,35.74
2022-08-03T14:38:32.635Z,36.72
2022-08-03T14:42:35.732Z,38.84
2022-08-03T14:46:38.922Z,38.08
2022-08-03T14:50:50.351Z,37.45
2022-08-03T14:54:54.224Z,36.14
2022-08-03T14:58:57.248Z,35.43
2022-08-03T15:03:00.624Z,35.70
2022-08-03T15:07:05.140Z,35.56
2022-08-03T15:11:08.264Z,36.28
2022-08-03T15:15:11.822Z,38.40
2022-08-03T15:20:00.264Z,40.37
2022-08-03T15:23:39.168Z,37.73
2022-08-03T15:28:03.821Z,36.61
2022-08-03T15:32:09.131Z,37.97
2022-08-03T15:36:12.671Z,36.91
2022-08-03T15:40:17.154Z,36.52
2022-08-03T15:44:20.826Z,36.66
2022-08-03T15:48:26.431Z,37.73
2022-08-03T15:52:29.814Z,38.02
2022-08-03T15:56:34.276Z,35.74
2022-08-03T16:00:37.458Z,35.04
2022-08-03T16:04:40.511Z,34.85
2022-08-03T16:08:43.615Z,36.78
2022-08-03T16:12:48.751Z,36.63
2022-08-03T16:16:51.755Z,35.66
2022-08-03T16:20:54.816Z,35.75
2022-08-03T16:24:59.299Z,35.72
2022-08-03T16:29:03.808Z,36.42
2022-08-03T16:33:08.161Z,37.01
2022-08-03T16:37:37.055Z,36.56
2022-08-03T16:41:53.574Z,36.93
2022-08-03T16:45:59.075Z,36.25
2022-08-03T16:50:05.775Z,37.29
2022-08-03T16:54:14.068Z,36.32
2022-08-03T16:58:19.494Z,35.08
2022-08-03T17:02:48.250Z,36.78
2022-08-03T17:06:51.419Z,35.04
2022-08-03T17:10:54.480Z,35.39
2022-08-03T17:14:57.527Z,34.74
2022-08-03T17:19:06.572Z,34.98
2022-08-03T17:23:34.869Z,35.24
2022-08-03T17:28:48.702Z,35.68
2022-08-03T17:32:07.804Z,35.67
2022-08-03T17:36:16.305Z,35.74
2022-08-03T17:40:23.114Z,35.70
2022-08-03T17:44:28.873Z,35.28
2022-08-03T17:48:41.551Z,35.81
2022-08-03T17:52:50.109Z,34.33
2022-08-03T17:57:22.707Z,34.56
2022-08-03T18:02:02.007Z,34.07
2022-08-03T18:06:12.159Z,33.74
2022-08-03T18:10:22.713Z,34.34
2022-08-03T18:14:37.512Z,34.08
2022-08-03T18:18:43.348Z,33.17
2022-08-03T18:22:47.673Z,33.08
2022-08-03T18:26:52.611Z,32.38
2022-08-03T18:30:55.941Z,31.65
2022-08-03T18:35:01.758Z,31.44
2022-08-03T18:39:06.179Z,31.19
2022-08-03T18:43:11.200Z,30.95
2022-08-03T18:47:26.823Z,30.81
2022-08-03T18:51:54.966Z,30.52
2022-08-03T18:56:08.931Z,30.52
2022-08-03T19:00:23.904Z,30.28
2022-08-03T19:04:33.145Z,30.14
2022-08-03T19:08:47.847Z,29.69
2022-08-03T19:12:54.329Z,29.17
2022-08-03T19:17:06.841Z,28.98
2022-08-03T19:21:12.718Z,28.74
2022-08-03T19:25:19.444Z,28.37
2022-08-03T19:29:24.374Z,28.27
2022-08-03T19:33:55.848Z,28.05
2022-08-03T19:38:00.415Z,27.99
2022-08-03T19:42:12.173Z,27.88
2022-08-03T19:46:27.694Z,27.64
2022-08-03T19:50:37.361Z,27.66
2022-08-03T19:54:54.671Z,27.51
2022-08-03T19:59:00.094Z,27.26
2022-08-03T20:03:03.627Z,26.96
2022-08-03T20:07:08.009Z,26.24
2022-08-03T20:11:12.304Z,26.24
2022-08-03T20:15:18.386Z,26.41
2022-08-03T20:19:40.889Z,26.45
2022-08-03T20:24:02.888Z,26.25
2022-08-03T20:28:13.980Z,25.98
2022-08-03T20:32:19.118Z,25.89
2022-08-03T20:36:27.589Z,25.85
2022-08-03T20:40:31.939Z,25.90
2022-08-03T20:44:35.003Z,25.80
2022-08-03T20:48:48.737Z,25.58
2022-08-03T20:52:51.995Z,25.30
2022-08-03T20:56:57.493Z,25.14
2022-08-03T21:01:01.996Z,25.05
2022-08-03T21:05:08.601Z,25.14
2022-08-03T21:09:18.462Z,25.19
2022-08-03T21:13:27.430Z,25.25
2022-08-03T21:17:41.599Z,25.51
2022-08-03T21:21:47.936Z,25.44
2022-08-03T21:25:52.209Z,25.22
2022-08-03T21:29:56.959Z,25.06
2022-08-03T21:34:03.180Z,25.14
2022-08-03T21:38:29.520Z,25.08
2022-08-03T21:42:33.454Z,25.00
2022-08-03T21:46:40.152Z,24.92
2022-08-03T21:50:44.275Z,24.84
2022-08-03T21:54:50.781Z,24.85
2022-08-03T21:58:56.301Z,24.75
2022-08-03T22:03:15.361Z,24.55
2022-08-03T22:07:23.449Z,24.23
2022-08-03T22:11:27.644Z,24.23
2022-08-03T22:15:31.634Z,24.22
2022-08-03T22:19:36.068Z,23.96
2022-08-03T22:23:42.051Z,23.84
2022-08-03T22:27:47.207Z,23.63
2022-08-03T22:31:58.340Z,23.46
2022-08-03T22:36:05.449Z,23.52
2022-08-03T22:40:11.241Z,23.51
2022-08-03T22:44:14.414Z,23.44
2022-08-03T22:48:18.253Z,22.99
2022-08-03T22:52:24.077Z,23.07
2022-08-03T22:56:27.191Z,22.95
2022-08-03T23:00:30.194Z,22.87
2022-08-03T23:04:35.043Z,22.79
2022-08-03T23:08:42.399Z,22.64
2022-08-03T23:12:49.424Z,22.50
2022-08-03T23:16:55.149Z,22.41
2022-08-03T23:21:01.639Z,22.40
2022-08-03T23:25:16.465Z,22.28
2022-08-03T23:29:21.302Z,22.25
2022-08-03T23:33:24.608Z,22.15
2022-08-03T23:37:27.962Z,22.10
2022-08-03T23:41:34.051Z,22.12
2022-08-03T23:45:37.650Z,22.18
2022-08-03T23:49:40.995Z,22.10
2022-08-03T23:53:52.659Z,22.21
2022-08-03T23:58:05.089Z,22.11
